NCAR-RAP Real-Time Weather Data

Output produced by METARs form (08 May 2021  15:27 UTC)
found at http://weather.rap.ucar.edu/surface/
 
KBOS 081454Z 05008KT 10SM BKN050 BKN070 OVC220 11/03 A2988 RMK AO2 SLP118 T01110033 53014
KBOS 081354Z 04010KT 10SM FEW030 BKN070 BKN220 11/04 A2986 RMK AO2 SLP111 T01110039
KBOS 081254Z 03013KT 10SM SCT070 BKN220 11/02 A2985 RMK AO2 SLP107 T01060022
KBOS 081154Z 01012KT 10SM SCT070 BKN220 11/00 A2984 RMK AO2 SLP104 T01060000 10106 20078 50004
KBOS 081054Z 36008KT 10SM SCT070 BKN220 09/01 A2984 RMK AO2 SLP105 T00890006
KBOS 080954Z 35007KT 10SM FEW070 OVC180 08/01 A2983 RMK AO2 SLP101 T00830011
KBOS 080854Z 36008KT 10SM BKN065 OVC180 08/02 A2983 RMK AO2 SLP100 T00780022 58016
KBOS 080754Z 01008KT 10SM OVC060 08/03 A2986 RMK AO2 SLP111 T00830028
KBOS 080654Z 35008KT 10SM OVC180 08/03 A2986 RMK AO2 SLP111 T00830028
KBOS 080554Z 35006KT 10SM FEW170 OVC220 09/03 A2988 RMK AO2 SLP116 T00890033 10100 20089 58022
KBOS 080454Z 01006KT 10SM FEW170 OVC220 09/04 A2991 RMK AO2 SLP128 T00890039 401330089
KBOS 080354Z 03004KT 10SM FEW180 OVC250 09/04 A2992 RMK AO2 SLP130 T00890039
KBOS 080254Z 12006KT 10SM BKN250 09/03 A2994 RMK AO2 SLP138 T00890033 55004
KBOS 080154Z 07005KT 10SM BKN250 09/03 A2992 RMK AO2 SLP130 T00940033
KBOS 080054Z 12006KT 10SM FEW080 OVC220 09/03 A2995 RMK AO2 SLP140 T00940033
KBOS 072354Z 10008KT 10SM BKN080 BKN220 BKN250 10/03 A2995 RMK AO2 SLP142 T01000028 10133 20100 58004
KBOS 072254Z 11011KT 10SM BKN075 BKN220 11/03 A2997 RMK AO2 SLP147 T01060033
KBOS 072154Z 09011KT 10SM BKN070 BKN220 11/04 A2997 RMK AO2 SLP149 T01060039
KBOS 072054Z 09011KT 10SM BKN070 BKN220 11/04 A2996 RMK AO2 SLP146 T01060044 56007
KBOS 071954Z 08013KT 10SM SCT070 SCT085 BKN220 12/04 A2997 RMK AO2 SLP147 T01220044
KBOS 071854Z 08014KT 10SM SCT080 12/04 A2998 RMK AO2 SLP151 T01220044
KBOS 071754Z 08016KT 10SM SCT075 SCT220 13/05 A2999 RMK AO2 SLP153 T01280050 10133 20122 58006
KBOS 071654Z 07014KT 10SM FEW045 FEW250 13/05 A2999 RMK AO2 SLP155 T01280050
KBOS 071554Z 08014KT 10SM FEW040 FEW250 13/06 A3000 RMK AO2 SLP159 T01280061
KBOS 071454Z 07014KT 10SM FEW040 FEW250 13/07 A3000 RMK AO2 SLP159 T01280067 52008
KBOS 071354Z 07010KT 10SM FEW240 13/04 A3000 RMK AO2 SLP157 T01280044 $
KBOS 071254Z 07009KT 10SM SCT250 13/03 A2999 RMK AO2 SLP154 T01280028 $
KBOS 071154Z 03010KT 10SM FEW180 SCT250 13/01 A2998 RMK AO2 SLP152 T01280006 10128 20094 53005 $
KBOS 071054Z 36007KT 10SM FEW180 SCT220 12/00 A2998 RMK AO2 SLP150 T01170000 $
KBOS 070954Z 36005KT 10SM SCT180 BKN220 09/M01 A2997 RMK AO2 SLP148 T00941006 $
KBOS 070854Z 35005KT 10SM BKN180 10/00 A2997 RMK AO2 SLP147 T01000000 53002 $
KBOS 070754Z 35006KT 10SM FEW170 BKN220 10/M01 A2996 RMK AO2 SLP143 T01001006 $
KBOS 070654Z 35006KT 10SM FEW170 BKN220 12/M02 A2995 RMK AO2 SLP142 T01171022 $
KBOS 070554Z 34004KT 10SM BKN220 12/M02 A2996 RMK AO2 SLP145 T01221017 10167 20111 50008 $
KBOS 070454Z 00000KT 10SM BKN200 11/01 A2997 RMK AO2 SLP146 T01110011 401940100 $
KBOS 070354Z 02005KT 10SM OVC200 12/M02 A2995 RMK AO2 SLP142 T01221017 $
KBOS 070254Z 01007KT 10SM OVC180 14/M03 A2994 RMK AO2 SLP137 T01391028 51015 $
KBOS 070154Z 36008KT 10SM OVC180 14/M02 A2993 RMK AO2 SLP134 T01441022 $
KBOS 070054Z 35006KT 10SM OVC200 16/M03 A2991 RMK AO2 SLP129 T01611028 $
KBOS 062354Z 35009KT 10SM FEW060 OVC250 17/M03 A2989 RMK AO2 SLP121 T01671028 10194 20167 53020 $
KBOS 062254Z 35007KT 10SM FEW060 BKN250 18/M03 A2987 RMK AO2 SLP115 T01831028 $
KBOS 062154Z 30007KT 10SM FEW065 BKN250 19/M02 A2985 RMK AO2 SLP108 T01891017
KBOS 062054Z 30009KT 10SM FEW065 SCT200 19/M01 A2983 RMK AO2 SLP102 T01891011 55000
KBOS 061954Z 33010G17KT 10SM FEW055 FEW200 19/01 A2981 RMK AO2 SLP094 T01940006
KBOS 061854Z 34009G18KT 10SM FEW055 18/00 A2982 RMK AO2 SLP098 T01830000
KBOS 061754Z 32011G23KT 10SM FEW060 18/00 A2983 RMK AO2 SLP102 T01780000 10178 20122 58002
KBOS 061654Z 31013G23KT 10SM SCT055 17/01 A2983 RMK AO2 SLP102 T01720006
KBOS 061554Z 34013G23KT 10SM SCT055 16/02 A2984 RMK AO2 PK WND 32026/1503 SLP105 T01610022